Time;durP1;ratioP1;P1;durP2;ratioP2;P2;SDS_P1;SDS_P2;PMS_P1;PMS_P2;Temp;Humidity;BMP_temperature;BMP_pressure;BME280_temperature;BME280_humidity;BME280_pressure;Samples;Min_cycle;Max_cycle;Signal;HPM_P1;HPM_P2
2021/09/19 00:01:08;;;;;;;7.00;4.30;;;14.20;99.90;;;;;;5052333;28;20203;-89
2021/09/19 00:03:36;;;;;;;7.43;4.70;;;14.20;99.90;;;;;;5050194;28;20210;-89
2021/09/19 00:06:05;;;;;;;6.33;4.43;;;14.20;99.90;;;;;;5049154;28;20290;-89
2021/09/19 00:08:32;;;;;;;7.27;4.20;;;14.20;99.90;;;;;;5047701;28;20211;-89
2021/09/19 00:11:00;;;;;;;6.73;4.53;;;14.10;99.90;;;;;;5051936;28;20206;-90
2021/09/19 00:13:27;;;;;;;7.37;4.57;;;14.20;99.90;;;;;;5059607;28;20206;-90
2021/09/19 00:15:54;;;;;;;4.90;4.37;;;14.20;99.90;;;;;;5058429;28;20277;-90
2021/09/19 00:18:21;;;;;;;5.83;4.63;;;14.10;99.90;;;;;;5038494;28;20222;-90
2021/09/19 00:20:48;;;;;;;7.77;4.40;;;14.20;99.90;;;;;;5050094;28;20309;-90
2021/09/19 00:23:17;;;;;;;8.93;4.87;;;14.30;99.90;;;;;;5052167;28;20261;-89
2021/09/19 00:25:45;;;;;;;7.87;4.90;;;14.10;99.90;;;;;;5055105;28;20233;-89
2021/09/19 00:28:12;;;;;;;6.97;4.20;;;14.10;99.90;;;;;;5056067;28;20199;-89
2021/09/19 00:30:39;;;;;;;7.63;4.23;;;14.10;99.90;;;;;;5056198;28;20202;-89
2021/09/19 00:33:06;;;;;;;5.87;4.50;;;14.10;99.90;;;;;;5056001;28;20202;-90
2021/09/19 00:35:34;;;;;;;9.50;4.87;;;14.10;99.90;;;;;;5055615;28;20306;-89
2021/09/19 00:38:01;;;;;;;6.20;4.60;;;14.10;99.90;;;;;;5055969;28;20290;-90
2021/09/19 00:40:30;;;;;;;6.93;4.80;;;14.10;99.90;;;;;;5055726;28;20203;-90
2021/09/19 00:42:57;;;;;;;9.47;5.30;;;13.90;99.90;;;;;;5055500;28;20199;-89
2021/09/19 00:45:25;;;;;;;7.30;4.83;;;14.00;99.90;;;;;;5055541;28;20251;-89
2021/09/19 00:47:52;;;;;;;9.83;4.83;;;14.00;99.90;;;;;;5035463;28;20708;-91
2021/09/19 00:50:23;;;;;;;8.73;5.03;;;14.00;99.90;;;;;;5035532;28;20239;-90
2021/09/19 00:52:52;;;;;;;9.60;5.37;;;14.00;99.90;;;;;;5035641;28;20250;-90
2021/09/19 00:55:20;;;;;;;6.87;4.80;;;14.10;99.90;;;;;;5052475;28;20269;-91
2021/09/19 00:57:51;;;;;;;8.57;5.27;;;14.00;99.90;;;;;;5055371;28;20226;-90
2021/09/19 01:00:25;;;;;;;8.33;4.40;;;14.00;99.90;;;;;;5055077;28;20199;-90
2021/09/19 01:02:53;;;;;;;12.93;5.37;;;14.00;99.90;;;;;;5055726;28;20660;-90
2021/09/19 01:05:20;;;;;;;7.73;5.03;;;14.00;99.90;;;;;;5054942;28;20242;-91
2021/09/19 01:07:48;;;;;;;6.93;5.13;;;13.90;99.90;;;;;;5054889;28;20219;-90
2021/09/19 01:10:20;;;;;;;10.10;5.47;;;13.80;99.90;;;;;;5055168;28;20238;-91
2021/09/19 01:12:52;;;;;;;8.97;5.23;;;13.80;99.90;;;;;;5055121;28;20615;-90
2021/09/19 01:15:20;;;;;;;10.43;5.97;;;13.90;99.90;;;;;;5055031;28;20219;-91
2021/09/19 01:17:51;;;;;;;11.43;6.07;;;13.90;99.90;;;;;;5055342;28;20211;-91
2021/09/19 01:20:19;;;;;;;9.27;5.37;;;13.80;99.90;;;;;;5049294;28;20241;-90
2021/09/19 01:22:57;;;;;;;9.40;5.20;;;13.80;99.90;;;;;;5054793;28;20207;-90
2021/09/19 01:25:27;;;;;;;10.37;5.90;;;13.80;99.90;;;;;;5051487;28;20230;-91
2021/09/19 01:27:55;;;;;;;9.37;5.63;;;13.90;99.90;;;;;;5054283;28;20215;-91
2021/09/19 01:30:23;;;;;;;8.83;5.10;;;13.80;99.90;;;;;;5054719;28;20264;-91
2021/09/19 01:32:50;;;;;;;11.40;5.80;;;13.90;99.90;;;;;;5054897;28;20207;-90
2021/09/19 01:35:20;;;;;;;9.17;5.10;;;13.80;99.90;;;;;;5054794;28;20311;-91
2021/09/19 01:37:47;;;;;;;8.23;4.67;;;13.80;99.90;;;;;;5053922;28;20187;-92
2021/09/19 01:40:15;;;;;;;10.13;5.20;;;13.80;99.90;;;;;;5053722;28;20309;-92
2021/09/19 01:42:45;;;;;;;8.13;5.27;;;13.80;99.90;;;;;;5054656;28;20234;-91
2021/09/19 01:45:13;;;;;;;9.00;5.03;;;13.80;99.90;;;;;;5054201;28;20310;-91
2021/09/19 01:47:40;;;;;;;11.50;6.20;;;13.80;99.90;;;;;;5054439;28;20653;-91
2021/09/19 01:50:09;;;;;;;7.93;5.30;;;13.80;99.90;;;;;;5053938;28;20226;-91
2021/09/19 01:52:38;;;;;;;10.13;5.27;;;13.70;99.90;;;;;;5054088;28;20227;-91
2021/09/19 01:55:08;;;;;;;10.80;5.47;;;13.70;99.90;;;;;;5054457;28;20722;-91
2021/09/19 01:57:35;;;;;;;10.13;5.40;;;13.70;99.90;;;;;;5045161;28;20287;-91
2021/09/19 02:00:07;;;;;;;8.43;5.67;;;13.70;99.90;;;;;;5052062;28;20235;-91
2021/09/19 02:02:35;;;;;;;9.33;5.60;;;13.70;99.90;;;;;;5034794;28;20204;-91
2021/09/19 02:05:04;;;;;;;12.53;5.77;;;13.70;99.90;;;;;;5040366;28;20635;-91
2021/09/19 02:07:31;;;;;;;9.53;5.80;;;13.70;99.90;;;;;;5052639;28;20277;-91
2021/09/19 02:09:59;;;;;;;7.23;5.60;;;13.60;99.90;;;;;;5034618;28;20212;-91
2021/09/19 02:12:26;;;;;;;9.67;6.40;;;13.70;99.90;;;;;;5034605;28;20211;-91
2021/09/19 02:14:55;;;;;;;7.50;5.70;;;13.60;99.90;;;;;;5038519;28;20250;-90
2021/09/19 02:17:23;;;;;;;12.53;6.07;;;13.60;99.90;;;;;;5045658;28;20231;-91
2021/09/19 02:19:50;;;;;;;7.70;4.97;;;13.70;99.90;;;;;;5048976;28;20260;-91
2021/09/19 02:22:17;;;;;;;9.77;5.47;;;13.50;99.90;;;;;;5054081;28;20294;-90
2021/09/19 02:24:44;;;;;;;8.27;5.43;;;13.60;99.90;;;;;;5053262;28;20223;-91
2021/09/19 02:27:13;;;;;;;8.30;5.00;;;13.60;99.90;;;;;;5050738;28;20268;-91
2021/09/19 02:29:40;;;;;;;7.63;4.90;;;13.60;99.90;;;;;;5053411;28;20217;-91
2021/09/19 02:32:07;;;;;;;7.97;5.33;;;13.60;99.90;;;;;;5043852;28;20231;-91
2021/09/19 02:34:36;;;;;;;8.60;5.20;;;13.60;99.90;;;;;;5038474;28;20234;-90
2021/09/19 02:37:04;;;;;;;8.57;5.37;;;13.60;99.90;;;;;;5053122;28;20210;-91
2021/09/19 02:39:31;;;;;;;8.10;5.83;;;13.50;99.90;;;;;;5048663;28;20256;-91
2021/09/19 02:42:00;;;;;;;9.57;5.90;;;13.50;99.90;;;;;;5053812;28;20229;-91
2021/09/19 02:44:28;;;;;;;9.20;6.00;;;13.40;99.90;;;;;;5048131;28;20230;-90
2021/09/19 02:46:56;;;;;;;10.73;6.07;;;13.40;99.90;;;;;;5045392;28;20276;-91
2021/09/19 02:52:14;;;;;;;9.50;5.47;;;13.30;99.90;;;;;;5051586;28;20195;-90
2021/09/19 02:57:49;;;;;;;9.33;5.40;;;13.20;99.90;;;;;;5045445;28;20681;-90
2021/09/19 03:00:20;;;;;;;8.57;5.73;;;13.20;99.90;;;;;;5033933;28;20710;-91
2021/09/19 03:09:27;;;;;;;10.80;5.37;;;13.10;99.90;;;;;;4993429;28;20223;-91
2021/09/19 03:11:58;;;;;;;9.33;5.40;;;13.10;99.90;;;;;;5044550;28;20210;-91
2021/09/19 03:14:27;;;;;;;12.60;5.40;;;12.80;99.90;;;;;;5052698;28;20223;-92
2021/09/19 03:17:03;;;;;;;8.93;5.10;;;12.90;99.90;;;;;;5051737;28;20199;-92
2021/09/19 03:22:46;;;;;;;9.40;5.67;;;13.00;99.90;;;;;;5050663;28;20315;-92
2021/09/19 03:25:16;;;;;;;8.50;5.47;;;13.10;99.90;;;;;;5050516;28;20222;-90
2021/09/19 03:27:46;;;;;;;10.00;5.00;;;12.80;99.90;;;;;;5044277;28;20233;-90
2021/09/19 03:30:17;;;;;;;8.03;5.20;;;12.90;99.90;;;;;;5050293;28;20203;-91
2021/09/19 03:32:47;;;;;;;8.67;5.43;;;12.80;99.90;;;;;;5042252;28;20218;-91
2021/09/19 03:35:15;;;;;;;11.00;5.77;;;12.80;99.90;;;;;;5052268;28;20756;-92
2021/09/19 03:37:43;;;;;;;10.83;5.47;;;12.80;99.90;;;;;;5052336;28;20261;-90
2021/09/19 03:40:15;;;;;;;7.53;5.23;;;12.80;99.90;;;;;;5049068;28;20240;-91
2021/09/19 03:42:51;;;;;;;9.30;5.50;;;12.80;99.90;;;;;;5051714;28;20641;-91
2021/09/19 03:45:20;;;;;;;8.20;5.93;;;12.80;99.90;;;;;;5053145;28;20231;-91
2021/09/19 03:47:47;;;;;;;10.90;5.83;;;12.80;99.90;;;;;;5053029;28;20233;-90
2021/09/19 03:50:14;;;;;;;8.97;5.30;;;12.70;99.90;;;;;;5052107;28;20282;-91
2021/09/19 03:52:42;;;;;;;10.83;6.20;;;12.70;99.90;;;;;;5040590;28;20208;-90
2021/09/19 03:55:54;;;;;;;9.63;5.60;;;12.60;99.90;;;;;;5050854;28;20231;-91
2021/09/19 03:58:26;;;;;;;9.20;5.73;;;12.70;99.90;;;;;;5053074;28;20227;-90
2021/09/19 04:00:53;;;;;;;9.27;5.83;;;12.70;99.90;;;;;;5051715;28;20198;-91
2021/09/19 04:03:20;;;;;;;10.80;5.57;;;12.70;99.90;;;;;;5048189;28;20650;-91
2021/09/19 04:05:48;;;;;;;8.93;5.90;;;12.70;99.90;;;;;;5055851;28;20227;-90
2021/09/19 04:08:17;;;;;;;12.30;6.30;;;12.70;99.90;;;;;;5052129;28;20227;-91
2021/09/19 04:10:46;;;;;;;12.47;6.03;;;12.70;99.90;;;;;;5053623;28;20215;-91
2021/09/19 04:13:13;;;;;;;10.20;5.90;;;12.70;99.90;;;;;;5056271;28;20223;-91
2021/09/19 04:15:41;;;;;;;7.63;5.47;;;12.70;99.90;;;;;;5055988;28;20257;-91
2021/09/19 04:18:09;;;;;;;10.93;6.00;;;12.70;99.90;;;;;;5048988;28;20207;-92
2021/09/19 04:20:36;;;;;;;9.57;5.57;;;12.70;99.90;;;;;;5056596;28;20281;-90
2021/09/19 04:23:03;;;;;;;10.70;5.60;;;12.60;99.90;;;;;;5051762;28;20281;-90
2021/09/19 04:25:30;;;;;;;9.83;5.57;;;12.60;99.90;;;;;;5048034;28;20226;-90
2021/09/19 04:27:57;;;;;;;8.83;5.80;;;12.60;99.90;;;;;;5054495;28;20218;-90
2021/09/19 04:30:24;;;;;;;9.67;5.87;;;12.70;99.90;;;;;;5050390;28;20300;-90
2021/09/19 04:32:57;;;;;;;11.13;6.80;;;12.50;99.90;;;;;;5055617;28;20329;-91
2021/09/19 04:35:24;;;;;;;9.93;6.13;;;12.50;99.90;;;;;;5038929;28;20811;-91
2021/09/19 04:37:51;;;;;;;8.60;5.50;;;12.50;99.90;;;;;;5052868;28;20209;-89
2021/09/19 04:40:18;;;;;;;9.23;5.77;;;12.60;99.90;;;;;;5055492;28;20210;-91
2021/09/19 04:42:45;;;;;;;12.20;5.90;;;12.50;99.90;;;;;;5053483;28;20671;-92
2021/09/19 04:45:13;;;;;;;9.40;6.33;;;12.50;99.90;;;;;;5044078;28;20311;-91
2021/09/19 04:47:39;;;;;;;8.83;5.67;;;12.50;99.90;;;;;;5054223;28;20306;-91
2021/09/19 04:50:09;;;;;;;8.80;5.73;;;12.50;99.90;;;;;;5055268;28;20616;-91
2021/09/19 04:52:36;;;;;;;10.57;6.63;;;12.50;99.90;;;;;;5055109;28;20644;-91
2021/09/19 04:55:04;;;;;;;12.33;6.57;;;12.50;99.90;;;;;;5054865;28;20306;-91
2021/09/19 04:57:30;;;;;;;11.57;6.43;;;12.50;99.90;;;;;;5054868;28;20195;-92
2021/09/19 04:59:57;;;;;;;10.20;5.90;;;12.60;99.90;;;;;;5053105;28;20209;-92
2021/09/19 05:02:24;;;;;;;13.20;6.47;;;12.60;99.90;;;;;;5055257;28;20206;-90
2021/09/19 05:04:51;;;;;;;10.77;6.23;;;12.60;99.90;;;;;;5050953;28;20345;-91
2021/09/19 05:07:20;;;;;;;9.97;5.83;;;12.60;99.90;;;;;;5037709;28;20216;-91
2021/09/19 05:09:46;;;;;;;10.50;6.80;;;12.70;99.90;;;;;;5049673;28;20267;-90
2021/09/19 05:12:13;;;;;;;12.77;6.23;;;12.60;99.90;;;;;;5046740;28;20660;-91
2021/09/19 05:14:40;;;;;;;13.63;7.27;;;12.80;99.90;;;;;;5046542;28;20309;-91
2021/09/19 05:17:07;;;;;;;12.93;7.00;;;12.60;99.90;;;;;;5054314;28;20282;-91
2021/09/19 05:19:34;;;;;;;12.57;7.20;;;12.60;99.90;;;;;;5045562;28;20241;-92
2021/09/19 05:22:01;;;;;;;10.90;6.43;;;12.60;99.90;;;;;;5052562;28;20305;-91
2021/09/19 05:24:29;;;;;;;10.37;6.40;;;12.70;99.90;;;;;;5051748;28;20302;-89
2021/09/19 05:26:56;;;;;;;13.13;7.30;;;12.70;99.90;;;;;;5052408;28;20718;-91
2021/09/19 05:29:24;;;;;;;10.03;6.77;;;12.70;99.90;;;;;;5051089;28;20313;-89
2021/09/19 05:31:51;;;;;;;10.83;6.73;;;12.80;99.90;;;;;;5053881;28;20291;-91
2021/09/19 05:34:18;;;;;;;11.57;6.43;;;12.80;99.90;;;;;;5054307;28;20261;-90
2021/09/19 05:36:45;;;;;;;11.80;6.20;;;12.70;99.90;;;;;;5053794;28;20223;-90
2021/09/19 05:39:12;;;;;;;11.30;6.30;;;12.70;99.90;;;;;;5055033;28;20285;-91
2021/09/19 05:41:41;;;;;;;13.40;6.80;;;12.70;99.90;;;;;;5053192;28;20621;-89
2021/09/19 05:44:08;;;;;;;11.23;6.53;;;12.80;99.90;;;;;;5043737;28;20282;-90
2021/09/19 05:46:36;;;;;;;8.53;5.60;;;12.80;99.90;;;;;;5052607;28;20219;-90
2021/09/19 05:49:03;;;;;;;9.20;6.20;;;13.00;99.90;;;;;;5049758;28;20253;-90
2021/09/19 05:51:30;;;;;;;9.20;6.33;;;12.90;99.90;;;;;;5053170;28;20201;-91
2021/09/19 05:53:56;;;;;;;9.90;6.43;;;12.90;99.90;;;;;;5053850;28;20614;-91
2021/09/19 05:56:23;;;;;;;10.60;5.97;;;12.90;99.90;;;;;;5052886;28;20766;-91
2021/09/19 05:58:52;;;;;;;8.00;5.67;;;12.90;99.90;;;;;;5051466;28;20218;-89
2021/09/19 06:01:19;;;;;;;10.97;6.00;;;13.00;99.90;;;;;;5048989;28;20210;-90
2021/09/19 06:03:46;;;;;;;9.40;6.00;;;12.80;99.90;;;;;;5046804;28;20221;-91
2021/09/19 06:06:13;;;;;;;9.70;6.17;;;12.80;99.90;;;;;;5051963;28;20599;-90
2021/09/19 06:08:39;;;;;;;10.53;6.00;;;12.80;99.90;;;;;;5052887;28;20219;-89
2021/09/19 06:11:06;;;;;;;10.97;5.60;;;12.70;99.90;;;;;;5051910;28;20661;-91
2021/09/19 06:13:33;;;;;;;9.33;5.77;;;12.80;99.90;;;;;;5050149;28;20286;-90
2021/09/19 06:16:02;;;;;;;11.17;6.30;;;12.80;99.90;;;;;;5051701;28;20242;-88
2021/09/19 06:18:30;;;;;;;10.53;6.03;;;12.80;99.90;;;;;;5042028;28;20575;-90
2021/09/19 06:20:57;;;;;;;10.37;5.73;;;12.80;99.90;;;;;;5044877;28;20219;-89
2021/09/19 06:23:24;;;;;;;10.07;6.40;;;12.80;99.90;;;;;;5046521;28;20250;-89
2021/09/19 06:25:52;;;;;;;9.73;6.33;;;12.80;99.90;;;;;;5048728;28;20310;-90
2021/09/19 06:28:19;;;;;;;9.33;6.20;;;12.80;99.90;;;;;;5043361;28;20700;-89
2021/09/19 06:30:46;;;;;;;8.83;5.77;;;12.80;99.90;;;;;;5049099;28;20296;-90
2021/09/19 06:33:14;;;;;;;12.40;6.00;;;12.90;99.90;;;;;;5048385;28;20237;-88
2021/09/19 06:35:41;;;;;;;11.23;6.07;;;12.90;99.90;;;;;;5046444;28;20284;-89
2021/09/19 06:38:09;;;;;;;8.23;5.57;;;12.90;99.90;;;;;;5046817;28;20203;-89
2021/09/19 06:40:36;;;;;;;10.20;5.90;;;13.10;99.90;;;;;;5045252;28;20597;-89
2021/09/19 06:43:03;;;;;;;8.87;5.73;;;13.00;99.90;;;;;;5045694;28;20287;-88
2021/09/19 06:45:30;;;;;;;10.47;5.70;;;13.00;99.90;;;;;;5037782;28;20257;-89
2021/09/19 06:47:57;;;;;;;8.80;5.73;;;13.00;99.90;;;;;;5047358;28;20219;-88
2021/09/19 06:50:26;;;;;;;11.90;6.03;;;13.20;99.90;;;;;;5048007;28;20214;-88
2021/09/19 06:52:52;;;;;;;9.63;5.20;;;13.10;99.90;;;;;;5044235;28;20326;-89
2021/09/19 06:55:19;;;;;;;10.17;6.13;;;13.10;99.90;;;;;;5044055;28;20782;-88
2021/09/19 06:57:47;;;;;;;8.77;5.20;;;13.40;99.90;;;;;;5044909;28;20234;-89
2021/09/19 07:00:15;;;;;;;10.67;5.70;;;13.20;99.90;;;;;;5039987;28;20207;-89
2021/09/19 07:02:42;;;;;;;8.00;5.47;;;13.20;99.90;;;;;;5042952;28;20310;-89
2021/09/19 07:05:10;;;;;;;7.77;4.90;;;13.20;99.90;;;;;;5045448;28;20306;-88
2021/09/19 07:07:38;;;;;;;8.63;5.03;;;13.30;99.90;;;;;;5046148;28;20790;-90
2021/09/19 07:10:06;;;;;;;10.77;5.90;;;13.30;99.90;;;;;;5043197;28;20218;-88
2021/09/19 07:12:33;;;;;;;10.83;5.27;;;13.30;99.90;;;;;;5043099;28;20736;-88
2021/09/19 07:15:00;;;;;;;10.17;6.20;;;13.40;99.90;;;;;;5047248;28;20212;-90
2021/09/19 07:17:27;;;;;;;7.37;5.17;;;13.40;99.90;;;;;;5048093;28;20282;-89
2021/09/19 07:19:54;;;;;;;7.83;5.07;;;13.50;99.90;;;;;;5049034;28;20290;-90
2021/09/19 07:22:23;;;;;;;8.20;5.27;;;13.50;99.90;;;;;;5051935;28;20236;-93
2021/09/19 07:24:51;;;;;;;8.17;5.00;;;13.50;99.90;;;;;;5053027;28;20234;-94
2021/09/19 07:27:22;;;;;;;7.33;5.13;;;13.60;99.90;;;;;;5054350;28;20211;-94
2021/09/19 07:29:49;;;;;;;7.20;4.90;;;13.70;99.90;;;;;;5050602;28;20223;-91
2021/09/19 07:32:16;;;;;;;10.83;6.07;;;13.60;99.90;;;;;;5050262;28;20207;-93
2021/09/19 07:34:44;;;;;;;7.43;5.03;;;13.60;99.90;;;;;;5045559;28;20254;-92
2021/09/19 07:37:11;;;;;;;11.37;5.53;;;13.60;99.90;;;;;;5041963;28;20211;-89
2021/09/19 07:39:39;;;;;;;9.87;5.50;;;13.70;99.90;;;;;;5051508;28;20230;-90
2021/09/19 07:42:08;;;;;;;9.60;5.20;;;13.80;99.90;;;;;;5048749;28;20298;-90
2021/09/19 07:44:35;;;;;;;8.50;5.17;;;13.80;99.90;;;;;;5044499;28;20306;-89
2021/09/19 07:47:03;;;;;;;10.00;5.33;;;13.90;99.90;;;;;;5044838;28;20302;-91
2021/09/19 07:49:30;;;;;;;8.20;5.13;;;14.00;99.90;;;;;;5044493;28;20246;-90
2021/09/19 07:51:59;;;;;;;7.47;5.00;;;13.90;99.90;;;;;;5045339;28;20207;-90
2021/09/19 07:54:26;;;;;;;10.23;5.80;;;14.00;99.90;;;;;;5043560;28;20876;-90
2021/09/19 07:56:53;;;;;;;7.07;5.10;;;14.10;99.90;;;;;;5041814;28;20226;-88
2021/09/19 07:59:21;;;;;;;7.30;5.00;;;14.10;99.90;;;;;;5045162;28;20286;-90
2021/09/19 08:01:48;;;;;;;11.00;5.00;;;14.20;99.90;;;;;;5042902;28;20272;-90
2021/09/19 08:04:15;;;;;;;8.30;4.70;;;14.10;99.90;;;;;;5039642;28;20279;-90
2021/09/19 08:06:42;;;;;;;13.50;4.77;;;14.20;99.90;;;;;;5049075;28;20589;-90
2021/09/19 08:09:09;;;;;;;7.83;4.83;;;14.30;99.90;;;;;;5039966;28;20227;-89
2021/09/19 08:11:36;;;;;;;6.57;4.30;;;14.30;99.90;;;;;;5043556;28;20678;-91
2021/09/19 08:14:06;;;;;;;6.80;4.53;;;14.30;99.90;;;;;;5049935;28;20291;-91
2021/09/19 08:16:36;;;;;;;7.77;4.87;;;14.40;99.90;;;;;;5049378;28;20215;-91
2021/09/19 08:19:03;;;;;;;9.27;4.90;;;14.40;99.90;;;;;;5040839;28;20738;-89
2021/09/19 08:21:30;;;;;;;7.97;4.43;;;14.50;99.90;;;;;;5047496;28;20286;-91
2021/09/19 08:24:00;;;;;;;7.73;4.63;;;14.40;99.90;;;;;;5044396;28;20235;-92
2021/09/19 08:26:30;;;;;;;8.67;4.80;;;14.40;99.90;;;;;;5044227;28;20442;-93
2021/09/19 08:28:58;;;;;;;8.00;5.00;;;14.40;99.90;;;;;;5045999;28;20267;-91
2021/09/19 08:31:25;;;;;;;8.83;5.00;;;14.40;99.90;;;;;;5040540;28;20210;-91
2021/09/19 08:34:03;;;;;;;9.83;5.73;;;14.40;99.90;;;;;;5043209;28;20294;-92
2021/09/19 08:36:30;;;;;;;8.53;5.17;;;14.40;99.90;;;;;;5036827;28;20214;-88
2021/09/19 08:38:58;;;;;;;7.47;4.77;;;14.40;99.90;;;;;;5034505;28;20210;-89
2021/09/19 08:41:25;;;;;;;6.93;4.70;;;14.50;99.90;;;;;;5027846;28;20209;-87
2021/09/19 08:43:53;;;;;;;8.77;5.47;;;14.50;99.90;;;;;;5031989;28;20553;-89
2021/09/19 08:46:22;;;;;;;8.83;5.27;;;14.50;99.90;;;;;;5030806;28;20327;-89
2021/09/19 08:48:50;;;;;;;7.50;5.13;;;14.50;99.90;;;;;;5033697;28;20246;-88
2021/09/19 08:51:19;;;;;;;8.63;5.07;;;14.40;99.90;;;;;;5038737;28;20294;-89
2021/09/19 08:53:46;;;;;;;9.33;5.40;;;14.30;99.90;;;;;;5040583;28;20203;-90
2021/09/19 08:56:21;;;;;;;7.53;5.17;;;14.40;99.90;;;;;;5040442;28;20302;-89
2021/09/19 08:58:48;;;;;;;7.40;4.77;;;14.40;99.90;;;;;;5037648;28;20601;-89
2021/09/19 09:01:15;;;;;;;6.93;4.93;;;14.50;99.90;;;;;;5040336;28;20250;-90
2021/09/19 09:03:42;;;;;;;9.73;5.43;;;14.40;99.90;;;;;;5040322;28;20688;-90
2021/09/19 09:06:10;;;;;;;9.47;6.00;;;14.30;99.90;;;;;;5041361;28;20224;-91
2021/09/19 09:08:41;;;;;;;7.80;5.47;;;14.30;99.90;;;;;;5041491;28;20226;-89
2021/09/19 09:11:09;;;;;;;6.63;5.30;;;14.30;99.90;;;;;;5040163;28;20449;-89
2021/09/19 09:13:38;;;;;;;8.33;5.83;;;14.40;99.90;;;;;;5040257;28;20214;-89
2021/09/19 09:16:07;;;;;;;9.27;5.67;;;14.40;99.90;;;;;;5035550;28;20226;-88
2021/09/19 09:18:36;;;;;;;9.70;5.20;;;14.30;99.90;;;;;;5036065;28;20318;-89
2021/09/19 09:21:05;;;;;;;9.57;5.60;;;14.20;99.90;;;;;;5041097;28;20203;-88
2021/09/19 09:23:35;;;;;;;9.70;5.50;;;14.30;99.90;;;;;;5038489;28;20276;-88
2021/09/19 09:26:18;;;;;;;6.20;4.90;;;14.30;99.90;;;;;;5038297;28;20306;-88
2021/09/19 09:28:48;;;;;;;7.33;5.50;;;14.20;99.90;;;;;;5035161;28;20326;-90
2021/09/19 09:31:24;;;;;;;10.53;5.77;;;14.20;99.90;;;;;;5034493;28;20307;-91
2021/09/19 09:33:59;;;;;;;6.97;5.17;;;14.50;99.90;;;;;;5037501;28;20582;-88
2021/09/19 09:36:42;;;;;;;7.77;5.00;;;14.40;99.90;;;;;;5040862;28;20258;-90
2021/09/19 09:39:29;;;;;;;6.77;5.30;;;14.50;99.90;;;;;;5038841;28;20268;-88
2021/09/19 09:42:00;;;;;;;6.80;5.13;;;14.70;99.90;;;;;;5036652;28;20284;-89
2021/09/19 09:44:33;;;;;;;10.27;5.30;;;14.80;99.90;;;;;;5038280;28;20745;-88
2021/09/19 09:47:02;;;;;;;7.40;4.67;;;14.80;99.90;;;;;;5033822;28;20298;-89
2021/09/19 09:49:38;;;;;;;6.23;4.30;;;14.70;99.90;;;;;;5031683;28;21004;-89
2021/09/19 09:52:07;;;;;;;6.53;4.10;;;14.80;99.90;;;;;;5036979;28;20546;-89
2021/09/19 09:54:44;;;;;;;8.37;4.03;;;14.90;99.90;;;;;;5037520;28;20232;-90
2021/09/19 09:57:13;;;;;;;9.97;4.03;;;14.80;99.90;;;;;;5039061;28;20232;-89
2021/09/19 09:59:44;;;;;;;4.77;3.93;;;15.00;99.90;;;;;;5036982;28;20298;-90
2021/09/19 10:02:15;;;;;;;8.27;4.07;;;15.00;99.90;;;;;;5040116;28;20217;-89
2021/09/19 10:04:43;;;;;;;6.53;3.83;;;14.90;99.90;;;;;;5038950;28;20618;-89
2021/09/19 10:08:14;;;;;;;6.77;3.93;;;14.90;99.90;;;;;;5033034;28;20295;-89
2021/09/19 10:10:44;;;;;;;5.73;3.40;;;15.00;99.90;;;;;;4948628;28;20290;-89
2021/09/19 10:13:14;;;;;;;4.33;2.80;;;15.00;99.90;;;;;;5031693;28;20208;-88
2021/09/19 10:15:41;;;;;;;6.77;3.40;;;15.00;99.90;;;;;;5036290;28;20802;-88
2021/09/19 10:18:10;;;;;;;7.50;3.27;;;14.80;99.90;;;;;;5036213;28;20616;-90
2021/09/19 10:20:42;;;;;;;4.67;2.73;;;15.00;99.90;;;;;;5038944;28;20211;-89
2021/09/19 10:23:14;;;;;;;4.20;2.53;;;15.00;99.90;;;;;;5045720;28;20211;-92
2021/09/19 10:25:55;;;;;;;5.53;3.00;;;14.80;99.90;;;;;;5051491;28;20632;-92
2021/09/19 10:28:26;;;;;;;4.33;2.70;;;14.80;99.90;;;;;;5045819;28;20206;-91
2021/09/19 10:31:22;;;;;;;3.30;2.30;;;14.90;99.90;;;;;;5046908;28;20314;-90
2021/09/19 10:33:54;;;;;;;3.73;2.53;;;14.80;99.90;;;;;;5045604;28;20264;-89
2021/09/19 10:36:51;;;;;;;4.67;2.80;;;14.90;99.90;;;;;;5051515;28;20223;-90
2021/09/19 10:39:36;;;;;;;3.57;2.90;;;15.00;99.90;;;;;;5035146;28;20199;-90
2021/09/19 10:42:16;;;;;;;5.53;3.00;;;15.10;99.90;;;;;;5051261;28;20249;-91
2021/09/19 10:45:16;;;;;;;4.03;2.67;;;15.10;99.90;;;;;;5049522;28;20234;-92
2021/09/19 10:47:53;;;;;;;4.77;3.47;;;15.10;99.90;;;;;;5046799;28;20622;-91
2021/09/19 10:50:32;;;;;;;3.33;2.53;;;15.20;99.90;;;;;;5045904;28;20234;-89
2021/09/19 10:53:01;;;;;;;5.00;2.67;;;15.20;99.90;;;;;;5045722;28;20297;-89
2021/09/19 10:55:38;;;;;;;4.43;2.70;;;15.40;99.90;;;;;;5041758;28;20231;-89
2021/09/19 10:58:10;;;;;;;4.00;2.50;;;15.30;99.90;;;;;;5048005;28;20676;-89
2021/09/19 11:00:43;;;;;;;5.60;2.50;;;15.30;99.90;;;;;;5049876;28;20670;-88
2021/09/19 11:03:16;;;;;;;2.93;2.40;;;15.10;99.90;;;;;;5048423;28;20203;-89
2021/09/19 11:05:53;;;;;;;2.80;2.50;;;15.00;99.90;;;;;;5048591;28;20215;-90
2021/09/19 11:08:49;;;;;;;2.93;2.60;;;14.90;99.90;;;;;;5043619;28;20210;-89
2021/09/19 11:11:29;;;;;;;3.70;3.10;;;14.80;99.90;;;;;;5043525;28;20218;-89
2021/09/19 11:14:01;;;;;;;4.20;2.67;;;14.90;99.90;;;;;;5043730;28;20309;-89
2021/09/19 11:16:38;;;;;;;4.00;2.70;;;14.90;99.90;;;;;;5044673;28;20250;-90
2021/09/19 11:19:10;;;;;;;6.37;3.17;;;14.80;99.90;;;;;;5046135;28;20221;-90
2021/09/19 11:21:43;;;;;;;5.03;3.83;;;14.80;99.90;;;;;;5049151;28;20270;-89
2021/09/19 11:24:12;;;;;;;5.53;3.50;;;14.70;99.90;;;;;;5049620;28;20284;-89
2021/09/19 11:26:42;;;;;;;4.37;3.20;;;14.80;99.90;;;;;;5039507;28;20218;-90
2021/09/19 11:29:10;;;;;;;5.03;3.53;;;14.60;99.90;;;;;;5047664;28;20297;-88
2021/09/19 11:31:39;;;;;;;4.93;3.33;;;14.70;99.90;;;;;;5037868;28;20223;-89
2021/09/19 11:34:08;;;;;;;3.57;3.07;;;14.60;99.90;;;;;;5043605;28;20377;-88
2021/09/19 11:36:39;;;;;;;3.50;2.80;;;14.70;99.90;;;;;;5046078;28;20295;-88
2021/09/19 11:39:06;;;;;;;4.50;3.43;;;14.70;99.90;;;;;;5041781;28;20207;-90
2021/09/19 11:41:34;;;;;;;5.03;3.20;;;14.70;99.90;;;;;;5044302;28;20231;-89
2021/09/19 11:44:01;;;;;;;6.37;3.40;;;14.70;99.90;;;;;;5033276;28;20238;-88
2021/09/19 11:46:28;;;;;;;4.57;3.23;;;14.70;99.90;;;;;;5045956;28;20219;-89
2021/09/19 11:48:57;;;;;;;6.47;3.20;;;14.60;99.90;;;;;;5041302;28;20688;-88
2021/09/19 11:51:25;;;;;;;6.40;3.40;;;14.60;99.90;;;;;;5044651;28;20721;-88
2021/09/19 11:53:54;;;;;;;4.53;3.03;;;14.50;99.90;;;;;;5048566;28;20295;-87
2021/09/19 11:56:22;;;;;;;4.27;3.07;;;14.60;99.90;;;;;;5048355;28;20305;-89
2021/09/19 11:58:50;;;;;;;11.13;7.93;;;14.60;99.90;;;;;;5041443;28;20249;-89
2021/09/19 12:01:24;;;;;;;6.87;3.27;;;14.90;99.90;;;;;;5042749;28;20290;-89
2021/09/19 12:03:52;;;;;;;3.87;3.10;;;14.80;99.90;;;;;;5041152;28;20290;-90
2021/09/19 12:06:21;;;;;;;5.93;3.37;;;14.70;99.90;;;;;;5045180;28;20247;-89
2021/09/19 12:08:50;;;;;;;4.80;3.50;;;14.70;99.90;;;;;;5046138;28;20253;-90
2021/09/19 12:11:17;;;;;;;4.43;3.60;;;14.70;99.90;;;;;;5036606;28;20231;-90
2021/09/19 12:13:49;;;;;;;5.63;3.53;;;14.80;99.90;;;;;;5036674;28;20200;-91
2021/09/19 12:16:19;;;;;;;7.50;3.70;;;14.90;99.90;;;;;;5039938;28;20212;-89
2021/09/19 12:18:49;;;;;;;5.93;3.37;;;14.80;99.90;;;;;;5040173;28;20219;-92
2021/09/19 12:21:22;;;;;;;6.20;3.80;;;14.60;99.90;;;;;;5043668;28;20255;-91
2021/09/19 12:23:50;;;;;;;6.70;4.30;;;14.70;99.90;;;;;;5043821;28;20308;-91
2021/09/19 12:26:21;;;;;;;5.73;3.90;;;14.70;99.90;;;;;;5044436;28;20230;-92
2021/09/19 12:28:50;;;;;;;6.77;3.60;;;14.80;99.90;;;;;;5042025;28;20213;-91
2021/09/19 12:31:36;;;;;;;6.80;4.07;;;14.90;99.90;;;;;;5047406;28;20600;-92
2021/09/19 12:34:05;;;;;;;7.70;3.73;;;15.00;99.90;;;;;;5046546;28;20305;-92
2021/09/19 12:36:40;;;;;;;5.70;3.60;;;14.90;99.90;;;;;;5041259;28;20219;-92
2021/09/19 12:39:13;;;;;;;5.53;3.80;;;15.00;99.90;;;;;;5044604;28;20910;-92
2021/09/19 12:41:40;;;;;;;4.83;3.83;;;15.10;99.90;;;;;;5041036;28;20576;-88
2021/09/19 12:44:15;;;;;;;6.73;3.50;;;15.20;99.90;;;;;;5042477;28;20215;-91
2021/09/19 12:46:46;;;;;;;6.27;3.70;;;15.40;99.90;;;;;;5038255;28;20211;-91
2021/09/19 12:49:21;;;;;;;4.90;3.40;;;15.40;99.90;;;;;;5040844;28;20215;-89
2021/09/19 12:52:11;;;;;;;6.17;3.30;;;15.50;99.90;;;;;;5041182;28;20738;-90
2021/09/19 12:54:47;;;;;;;4.87;3.73;;;15.40;99.90;;;;;;5045372;28;20306;-91
2021/09/19 12:57:14;;;;;;;5.23;3.50;;;15.50;99.90;;;;;;5040926;28;20302;-91
2021/09/19 12:59:41;;;;;;;3.97;3.13;;;15.50;99.90;;;;;;5043132;28;20218;-91
2021/09/19 13:02:08;;;;;;;4.57;3.23;;;15.40;99.90;;;;;;5047079;28;20625;-88
2021/09/19 13:04:35;;;;;;;4.47;3.30;;;15.30;99.90;;;;;;5045897;28;20254;-90
2021/09/19 13:07:03;;;;;;;7.63;3.57;;;15.30;99.90;;;;;;5044007;28;20660;-91
2021/09/19 13:09:31;;;;;;;6.23;2.93;;;15.20;99.90;;;;;;5042869;28;20207;-90
2021/09/19 13:11:58;;;;;;;4.23;3.40;;;15.20;99.90;;;;;;5045191;28;20246;-92
2021/09/19 13:14:28;;;;;;;3.90;3.13;;;15.20;99.90;;;;;;5041703;28;20719;-90